Check out our new PWSWeather beta!
PWSweather.com
Personal Weather Stations
Station Observations

SkegnessGB

Lat: 53.147585, Lon: 0.345774

Elevation: 18

Station Type: Fine Offset WH3080

http://www.skegnessweather.info/

High Low Average
Temperature 45.0°F7.2°C 34.2°F1.2°C 42.0°F5.6°C
Dew Point 42.0°F5.6°C 30.7°F-0.7°C 38.6°F3.7°C
Winds 8.6 mph 13.8 kmh Calm Calm 4.0 mph SE6.4 kmh SE
Wind Gusts 13.3 mph21.4 kmh -- 6.0 mph9.7 kmh
Humidity 91% 73% 88%
Pressure 30.21 in1023.0 mb 29.86 in1011.2 mb -
Precipitation 0.04 in1.0 mm - -
Hour Temp Dew Point Humidity Winds Wind Gusts Pressure Precip Precip Rate Daily Precip Total
12:00 AM 35.1°F1.7°C 31.6°F-0.2°C 87% 0.1 mph SW0.2 kmh SW 1.7 mph2.7 kmh 30.21 in1023.0 mb 0.00 in0.0 mm 0.00 in0.0 mm 0.00 in0.0 mm
12:10 AM 35.1°F1.7°C 31.6°F-0.2°C 87% 0.2 mph SE0.3 kmh SE 1.7 mph2.7 kmh 30.20 in1022.7 mb 0.00 in0.0 mm 0.00 in0.0 mm 0.00 in0.0 mm
12:20 AM 35.1°F1.7°C 31.6°F-0.2°C 87% Calm Calm 0.7 mph1.1 kmh 30.21 in1023.0 mb 0.00 in0.0 mm 0.00 in0.0 mm 0.00 in0.0 mm
12:30 AM 34.7°F1.5°C 31.2°F-0.4°C 87% Calm Calm -- 30.20 in1022.7 mb 0.00 in0.0 mm 0.00 in0.0 mm 0.00 in0.0 mm
12:40 AM 34.2°F1.2°C 30.7°F-0.7°C 87% Calm Calm -- 30.20 in1022.7 mb 0.00 in0.0 mm 0.00 in0.0 mm 0.00 in0.0 mm
12:50 AM 35.2°F1.8°C 32.0°F0.0°C 88% 0.9 mph S1.4 kmh S 2.5 mph4.0 kmh 30.19 in1022.4 mb 0.00 in0.0 mm 0.00 in0.0 mm 0.00 in0.0 mm
01:00 AM 35.6°F2.0°C 32.4°F0.2°C 88% Calm Calm 1.7 mph2.7 kmh 30.19 in1022.4 mb 0.00 in0.0 mm 0.00 in0.0 mm 0.00 in0.0 mm
01:10 AM 35.2°F1.8°C 32.0°F0.0°C 88% Calm Calm -- 30.18 in1022.0 mb 0.00 in0.0 mm 0.00 in0.0 mm 0.00 in0.0 mm
01:20 AM 35.1°F1.7°C 31.9°F-0.1°C 88% Calm Calm -- 30.18 in1022.0 mb 0.00 in0.0 mm 0.00 in0.0 mm 0.00 in0.0 mm
01:30 AM 34.7°F1.5°C 31.5°F-0.3°C 88% Calm Calm -- 30.17 in1021.7 mb 0.00 in0.0 mm 0.00 in0.0 mm 0.00 in0.0 mm
01:40 AM 34.5°F1.4°C 31.0°F-0.6°C 87% Calm Calm -- 30.18 in1022.0 mb 0.00 in0.0 mm 0.00 in0.0 mm 0.00 in0.0 mm
01:50 AM 35.1°F1.7°C 31.9°F-0.1°C 88% Calm Calm -- 30.17 in1021.7 mb 0.00 in0.0 mm 0.00 in0.0 mm 0.00 in0.0 mm
02:00 AM 36.1°F2.3°C 32.9°F0.5°C 88% Calm Calm -- 30.16 in1021.3 mb 0.00 in0.0 mm 0.00 in0.0 mm 0.00 in0.0 mm
02:10 AM 36.9°F2.7°C 33.9°F1.1°C 89% Calm Calm 0.7 mph1.1 kmh 30.16 in1021.3 mb 0.00 in0.0 mm 0.00 in0.0 mm 0.00 in0.0 mm
02:20 AM 37.6°F3.1°C 34.6°F1.4°C 89% 0.3 mph SSE0.5 kmh SSE 1.7 mph2.7 kmh 30.16 in1021.3 mb 0.00 in0.0 mm 0.00 in0.0 mm 0.00 in0.0 mm
02:30 AM 37.8°F3.2°C 35.1°F1.7°C 90% Calm Calm 0.7 mph1.1 kmh 30.16 in1021.3 mb 0.00 in0.0 mm 0.00 in0.0 mm 0.00 in0.0 mm
02:40 AM 38.1°F3.4°C 35.4°F1.9°C 90% Calm Calm 0.7 mph1.1 kmh 30.16 in1021.3 mb 0.00 in0.0 mm 0.00 in0.0 mm 0.00 in0.0 mm
02:50 AM 38.5°F3.6°C 35.8°F2.1°C 90% 1.0 mph SE1.6 kmh SE 3.4 mph5.5 kmh 30.16 in1021.3 mb 0.00 in0.0 mm 0.00 in0.0 mm 0.00 in0.0 mm
03:00 AM 38.5°F3.6°C 35.8°F2.1°C 90% 0.7 mph S1.1 kmh S 2.5 mph4.0 kmh 30.16 in1021.3 mb 0.00 in0.0 mm 0.00 in0.0 mm 0.00 in0.0 mm
03:10 AM 38.7°F3.7°C 36.0°F2.2°C 90% 1.3 mph S2.1 kmh S 2.5 mph4.0 kmh 30.16 in1021.3 mb 0.00 in0.0 mm 0.00 in0.0 mm 0.00 in0.0 mm
03:20 AM 38.8°F3.8°C 36.2°F2.3°C 90% 2.3 mph SSE3.7 kmh SSE 3.4 mph5.5 kmh 30.15 in1021.0 mb 0.00 in0.0 mm 0.00 in0.0 mm 0.00 in0.0 mm
03:30 AM 38.8°F3.8°C 36.2°F2.3°C 90% 0.7 mph E1.1 kmh E 2.5 mph4.0 kmh 30.14 in1020.7 mb 0.00 in0.0 mm 0.00 in0.0 mm 0.00 in0.0 mm
03:40 AM 38.8°F3.8°C 36.2°F2.3°C 90% 1.5 mph SE2.4 kmh SE 3.4 mph5.5 kmh 30.14 in1020.7 mb 0.00 in0.0 mm 0.00 in0.0 mm 0.00 in0.0 mm
03:50 AM 39.0°F3.9°C 36.3°F2.4°C 90% 1.1 mph ESE1.8 kmh ESE 4.2 mph6.8 kmh 30.13 in1020.3 mb 0.00 in0.0 mm 0.00 in0.0 mm 0.00 in0.0 mm
04:00 AM 39.0°F3.9°C 36.3°F2.4°C 90% 1.0 mph ESE1.6 kmh ESE 2.5 mph4.0 kmh 30.14 in1020.7 mb 0.00 in0.0 mm 0.00 in0.0 mm 0.00 in0.0 mm
04:10 AM 39.2°F4.0°C 36.5°F2.5°C 90% 1.4 mph SSW2.3 kmh SSW 2.5 mph4.0 kmh 30.13 in1020.3 mb 0.00 in0.0 mm 0.00 in0.0 mm 0.00 in0.0 mm
04:20 AM 39.2°F4.0°C 36.5°F2.5°C 90% 2.1 mph SW3.4 kmh SW 4.2 mph6.8 kmh 30.13 in1020.3 mb 0.00 in0.0 mm 0.00 in0.0 mm 0.00 in0.0 mm
04:30 AM 39.4°F4.1°C 36.7°F2.6°C 90% 2.4 mph WNW3.9 kmh WNW 6.6 mph10.6 kmh 30.12 in1020.0 mb 0.00 in0.0 mm 0.00 in0.0 mm 0.00 in0.0 mm
04:40 AM 39.4°F4.1°C 36.7°F2.6°C 90% 1.3 mph SSW2.1 kmh SSW 2.5 mph4.0 kmh 30.11 in1019.6 mb 0.00 in0.0 mm 0.00 in0.0 mm 0.00 in0.0 mm
04:50 AM 39.4°F4.1°C 36.7°F2.6°C 90% 1.8 mph NE2.9 kmh NE 4.2 mph6.8 kmh 30.12 in1020.0 mb 0.00 in0.0 mm 0.00 in0.0 mm 0.00 in0.0 mm
05:00 AM 39.6°F4.2°C 36.9°F2.7°C 90% 1.8 mph S2.9 kmh S 4.2 mph6.8 kmh 30.12 in1020.0 mb 0.00 in0.0 mm 0.00 in0.0 mm 0.00 in0.0 mm
05:10 AM 39.7°F4.3°C 37.0°F2.8°C 90% 4.9 mph SSE7.9 kmh SSE 5.9 mph9.5 kmh 30.11 in1019.6 mb 0.00 in0.0 mm 0.00 in0.0 mm 0.00 in0.0 mm
05:20 AM 39.7°F4.3°C 37.0°F2.8°C 90% 4.2 mph SSE6.8 kmh SSE 5.9 mph9.5 kmh 30.11 in1019.6 mb 0.00 in0.0 mm 0.00 in0.0 mm 0.00 in0.0 mm
05:30 AM 39.7°F4.3°C 37.0°F2.8°C 90% 2.8 mph WSW4.5 kmh WSW 5.9 mph9.5 kmh 30.11 in1019.6 mb 0.00 in0.0 mm 0.00 in0.0 mm 0.00 in0.0 mm
05:40 AM 39.7°F4.3°C 37.3°F2.9°C 91% 2.7 mph W4.3 kmh W 4.9 mph7.9 kmh 30.11 in1019.6 mb 0.00 in0.0 mm 0.00 in0.0 mm 0.00 in0.0 mm
05:50 AM 39.9°F4.4°C 37.5°F3.1°C 91% 1.8 mph SE2.9 kmh SE 3.4 mph5.5 kmh 30.10 in1019.3 mb 0.00 in0.0 mm 0.00 in0.0 mm 0.00 in0.0 mm
06:00 AM 39.9°F4.4°C 37.5°F3.1°C 91% 1.7 mph NE2.7 kmh NE 3.4 mph5.5 kmh 30.09 in1019.0 mb 0.00 in0.0 mm 0.00 in0.0 mm 0.00 in0.0 mm
06:10 AM 40.1°F4.5°C 37.7°F3.2°C 91% 1.8 mph NE2.9 kmh NE 4.2 mph6.8 kmh 30.09 in1019.0 mb 0.00 in0.0 mm 0.00 in0.0 mm 0.00 in0.0 mm
06:20 AM 40.1°F4.5°C 37.7°F3.2°C 91% 1.6 mph WSW2.6 kmh WSW 4.9 mph7.9 kmh 30.09 in1019.0 mb 0.00 in0.0 mm 0.00 in0.0 mm 0.00 in0.0 mm
06:30 AM 40.1°F4.5°C 37.7°F3.2°C 91% 2.5 mph S4.0 kmh S 4.9 mph7.9 kmh 30.09 in1019.0 mb 0.00 in0.0 mm 0.00 in0.0 mm 0.00 in0.0 mm
06:40 AM 40.3°F4.6°C 37.9°F3.3°C 91% 2.4 mph NE3.9 kmh NE 4.9 mph7.9 kmh 30.08 in1018.6 mb 0.00 in0.0 mm 0.00 in0.0 mm 0.00 in0.0 mm
06:50 AM 40.5°F4.7°C 38.0°F3.3°C 91% 1.9 mph SSW3.1 kmh SSW 4.9 mph7.9 kmh 30.09 in1019.0 mb 0.00 in0.0 mm 0.00 in0.0 mm 0.00 in0.0 mm
07:00 AM 40.5°F4.7°C 38.0°F3.3°C 91% 2.9 mph NNW4.7 kmh NNW 4.2 mph6.8 kmh 30.08 in1018.6 mb 0.00 in0.0 mm 0.00 in0.0 mm 0.00 in0.0 mm
07:10 AM 40.6°F4.8°C 38.2°F3.4°C 91% 2.5 mph NNE4.0 kmh NNE 5.9 mph9.5 kmh 30.08 in1018.6 mb 0.00 in0.0 mm 0.00 in0.0 mm 0.00 in0.0 mm
07:20 AM 40.8°F4.9°C 38.4°F3.6°C 91% 3.9 mph WSW6.3 kmh WSW 6.6 mph10.6 kmh 30.08 in1018.6 mb 0.00 in0.0 mm 0.00 in0.0 mm 0.00 in0.0 mm
07:30 AM 40.8°F4.9°C 38.4°F3.6°C 91% 2.8 mph SSE4.5 kmh SSE 6.6 mph10.6 kmh 30.08 in1018.6 mb 0.00 in0.0 mm 0.00 in0.0 mm 0.00 in0.0 mm
07:40 AM 40.8°F4.9°C 38.4°F3.6°C 91% 3.2 mph SSW5.1 kmh SSW 4.9 mph7.9 kmh 30.08 in1018.6 mb 0.00 in0.0 mm 0.00 in0.0 mm 0.00 in0.0 mm
07:50 AM 40.8°F4.9°C 38.4°F3.6°C 91% 4.7 mph S7.6 kmh S 10.1 mph16.3 kmh 30.07 in1018.3 mb 0.00 in0.0 mm 0.00 in0.0 mm 0.00 in0.0 mm
08:00 AM 40.8°F4.9°C 38.4°F3.6°C 91% 3.1 mph S5.0 kmh S 10.1 mph16.3 kmh 30.07 in1018.3 mb 0.00 in0.0 mm 0.00 in0.0 mm 0.00 in0.0 mm
08:10 AM 40.8°F4.9°C 38.4°F3.6°C 91% 5.3 mph SE8.5 kmh SE 7.6 mph12.2 kmh 30.07 in1018.3 mb 0.00 in0.0 mm 0.00 in0.0 mm 0.00 in0.0 mm
08:20 AM 40.8°F4.9°C 38.4°F3.6°C 91% 3.5 mph S5.6 kmh S 5.9 mph9.5 kmh 30.06 in1017.9 mb 0.00 in0.0 mm 0.00 in0.0 mm 0.00 in0.0 mm
08:30 AM 40.8°F4.9°C 38.4°F3.6°C 91% 5.6 mph SSE9.0 kmh SSE 10.1 mph16.3 kmh 30.06 in1017.9 mb 0.00 in0.0 mm 0.00 in0.0 mm 0.00 in0.0 mm
08:40 AM 41.2°F5.1°C 38.8°F3.8°C 91% 4.9 mph S7.9 kmh S 7.6 mph12.2 kmh 30.06 in1017.9 mb 0.00 in0.0 mm 0.00 in0.0 mm 0.00 in0.0 mm
08:50 AM 41.4°F5.2°C 38.9°F3.8°C 91% 4.9 mph SE7.9 kmh SE 6.6 mph10.6 kmh 30.05 in1017.6 mb 0.00 in0.0 mm 0.00 in0.0 mm 0.00 in0.0 mm
09:00 AM 41.4°F5.2°C 38.9°F3.8°C 91% 3.8 mph ENE6.1 kmh ENE 6.6 mph10.6 kmh 30.04 in1017.3 mb 0.00 in0.0 mm 0.00 in0.0 mm 0.00 in0.0 mm
09:10 AM 41.5°F5.3°C 39.1°F3.9°C 91% 4.4 mph E7.1 kmh E 5.9 mph9.5 kmh 30.04 in1017.3 mb 0.00 in0.0 mm 0.00 in0.0 mm 0.00 in0.0 mm
09:20 AM 41.5°F5.3°C 39.1°F3.9°C 91% 4.5 mph SE7.2 kmh SE 9.1 mph14.6 kmh 30.03 in1016.9 mb 0.00 in0.0 mm 0.00 in0.0 mm 0.00 in0.0 mm
09:30 AM 41.9°F5.5°C 39.5°F4.2°C 91% 4.1 mph SW6.6 kmh SW 7.6 mph12.2 kmh 30.02 in1016.6 mb 0.00 in0.0 mm 0.00 in0.0 mm 0.00 in0.0 mm
09:40 AM 41.9°F5.5°C 39.5°F4.2°C 91% 4.4 mph SSE7.1 kmh SSE 5.9 mph9.5 kmh 30.01 in1016.3 mb 0.00 in0.0 mm 0.00 in0.0 mm 0.00 in0.0 mm
09:50 AM 42.1°F5.6°C 39.6°F4.2°C 91% 5.1 mph SSE8.2 kmh SSE 9.1 mph14.6 kmh 30.02 in1016.6 mb 0.00 in0.0 mm 0.00 in0.0 mm 0.00 in0.0 mm
10:00 AM 42.3°F5.7°C 39.5°F4.2°C 90% 5.5 mph SE8.9 kmh SE 9.1 mph14.6 kmh 30.02 in1016.6 mb 0.00 in0.0 mm 0.00 in0.0 mm 0.00 in0.0 mm
10:10 AM 42.3°F5.7°C 39.5°F4.2°C 90% 6.6 mph E10.6 kmh E 9.1 mph14.6 kmh 30.02 in1016.6 mb 0.00 in0.0 mm 0.00 in0.0 mm 0.00 in0.0 mm
10:20 AM 42.4°F5.8°C 39.7°F4.3°C 90% 5.6 mph SW9.0 kmh SW 9.1 mph14.6 kmh 30.01 in1016.3 mb 0.00 in0.0 mm 0.00 in0.0 mm 0.00 in0.0 mm
10:30 AM 42.6°F5.9°C 39.9°F4.4°C 90% 6.8 mph S10.9 kmh S 8.4 mph13.5 kmh 30.01 in1016.3 mb 0.00 in0.0 mm 0.00 in0.0 mm 0.00 in0.0 mm
10:40 AM 42.6°F5.9°C 39.9°F4.4°C 90% 6.1 mph S9.8 kmh S 10.1 mph16.3 kmh 30.01 in1016.3 mb 0.00 in0.0 mm 0.00 in0.0 mm 0.00 in0.0 mm
10:50 AM 42.8°F6.0°C 39.8°F4.3°C 89% 6.1 mph NNW9.8 kmh NNW 8.4 mph13.5 kmh 30.00 in1015.9 mb 0.00 in0.0 mm 0.00 in0.0 mm 0.00 in0.0 mm
11:00 AM 42.8°F6.0°C 39.5°F4.2°C 88% 6.5 mph SW10.5 kmh SW 11.8 mph19.0 kmh 29.99 in1015.6 mb 0.00 in0.0 mm 0.00 in0.0 mm 0.00 in0.0 mm
11:10 AM 42.8°F6.0°C 39.2°F4.0°C 87% 5.9 mph NW9.5 kmh NW 6.6 mph10.6 kmh 29.98 in1015.2 mb 0.00 in0.0 mm 0.00 in0.0 mm 0.00 in0.0 mm
11:20 AM 43.0°F6.1°C 39.1°F3.9°C 86% 5.6 mph ENE9.0 kmh ENE 10.8 mph17.4 kmh 29.97 in1014.9 mb 0.00 in0.0 mm 0.00 in0.0 mm 0.00 in0.0 mm
11:30 AM 43.2°F6.2°C 39.0°F3.9°C 85% 5.8 mph WNW9.3 kmh WNW 8.4 mph13.5 kmh 29.97 in1014.9 mb 0.00 in0.0 mm 0.00 in0.0 mm 0.00 in0.0 mm
11:40 AM 43.3°F6.3°C 38.8°F3.8°C 84% 6.4 mph WNW10.3 kmh WNW 8.4 mph13.5 kmh 29.96 in1014.6 mb 0.00 in0.0 mm 0.00 in0.0 mm 0.00 in0.0 mm
11:50 AM 43.5°F6.4°C 39.0°F3.9°C 84% 6.8 mph SSW10.9 kmh SSW 10.1 mph16.3 kmh 29.95 in1014.2 mb 0.00 in0.0 mm 0.00 in0.0 mm 0.00 in0.0 mm
12:00 PM 43.5°F6.4°C 38.7°F3.7°C 83% 6.3 mph S10.1 kmh S 10.1 mph16.3 kmh 29.94 in1013.9 mb 0.00 in0.0 mm 0.00 in0.0 mm 0.00 in0.0 mm
12:10 PM 43.7°F6.5°C 38.9°F3.8°C 83% 6.8 mph N10.9 kmh N 10.1 mph16.3 kmh 29.93 in1013.5 mb 0.00 in0.0 mm 0.00 in0.0 mm 0.00 in0.0 mm
12:20 PM 44.1°F6.7°C 38.9°F3.8°C 82% 5.9 mph N9.5 kmh N 13.3 mph21.4 kmh 29.93 in1013.5 mb 0.00 in0.0 mm 0.00 in0.0 mm 0.00 in0.0 mm
12:30 PM 44.2°F6.8°C 39.1°F3.9°C 82% 5.5 mph SE8.9 kmh SE 8.4 mph13.5 kmh 29.93 in1013.5 mb 0.00 in0.0 mm 0.00 in0.0 mm 0.00 in0.0 mm
12:40 PM 44.4°F6.9°C 39.0°F3.9°C 81% 8.3 mph S13.4 kmh S 12.5 mph20.1 kmh 29.92 in1013.2 mb 0.00 in0.0 mm 0.00 in0.0 mm 0.00 in0.0 mm
12:50 PM 44.8°F7.1°C 37.3°F2.9°C 75% 8.6 mph SSW13.8 kmh SSW 13.3 mph21.4 kmh 29.92 in1013.2 mb 0.00 in0.0 mm 0.00 in0.0 mm 0.00 in0.0 mm
01:00 PM 45.0°F7.2°C 37.2°F2.9°C 74% 6.1 mph NE9.8 kmh NE 9.1 mph14.6 kmh 29.91 in1012.9 mb 0.00 in0.0 mm 0.00 in0.0 mm 0.00 in0.0 mm
01:10 PM 44.6°F7.0°C 36.5°F2.5°C 73% 8.2 mph N13.2 kmh N 9.1 mph14.6 kmh 29.91 in1012.9 mb 0.00 in0.0 mm 0.00 in0.0 mm 0.00 in0.0 mm
01:20 PM 44.4°F6.9°C 38.6°F3.7°C 80% 8.2 mph SSW13.2 kmh SSW 13.3 mph21.4 kmh 29.89 in1012.2 mb 0.00 in0.0 mm 0.00 in0.0 mm 0.00 in0.0 mm
01:30 PM 44.4°F6.9°C 39.0°F3.9°C 81% 6.7 mph NNE10.8 kmh NNE 9.1 mph14.6 kmh 29.89 in1012.2 mb 0.00 in0.0 mm 0.00 in0.0 mm 0.00 in0.0 mm
01:40 PM 44.4°F6.9°C 39.0°F3.9°C 81% 4.3 mph S6.9 kmh S 8.4 mph13.5 kmh 29.88 in1011.9 mb 0.00 in0.0 mm 0.00 in0.0 mm 0.00 in0.0 mm
01:50 PM 44.4°F6.9°C 39.3°F4.1°C 82% 4.8 mph WSW7.7 kmh WSW 10.1 mph16.3 kmh 29.88 in1011.9 mb 0.00 in0.0 mm 0.00 in0.0 mm 0.00 in0.0 mm
02:00 PM 44.4°F6.9°C 39.3°F4.1°C 82% 4.5 mph N7.2 kmh N 6.6 mph10.6 kmh 29.88 in1011.9 mb 0.00 in0.0 mm 0.00 in0.0 mm 0.00 in0.0 mm
02:10 PM 44.6°F7.0°C 37.8°F3.2°C 77% 4.6 mph NNE7.4 kmh NNE 10.8 mph17.4 kmh 29.87 in1011.5 mb 0.00 in0.0 mm 0.00 in0.0 mm 0.00 in0.0 mm
02:20 PM 44.6°F7.0°C 37.8°F3.2°C 77% 5.8 mph SSE9.3 kmh SSE 10.8 mph17.4 kmh 29.87 in1011.5 mb 0.00 in0.0 mm 0.00 in0.0 mm 0.00 in0.0 mm
02:30 PM 44.6°F7.0°C 37.8°F3.2°C 77% 5.7 mph SSW9.2 kmh SSW 11.8 mph19.0 kmh 29.87 in1011.5 mb 0.00 in0.0 mm 0.00 in0.0 mm 0.00 in0.0 mm
02:40 PM 44.6°F7.0°C 38.2°F3.4°C 78% 5.1 mph NNW8.2 kmh NNW 5.9 mph9.5 kmh 29.86 in1011.2 mb 0.00 in0.0 mm 0.00 in0.0 mm 0.00 in0.0 mm
02:50 PM 44.4°F6.9°C 39.6°F4.2°C 83% 4.7 mph WNW7.6 kmh WNW 9.1 mph14.6 kmh 29.86 in1011.2 mb 0.00 in0.0 mm 0.00 in0.0 mm 0.00 in0.0 mm
03:00 PM 44.4°F6.9°C 39.6°F4.2°C 83% 5.7 mph S9.2 kmh S 9.1 mph14.6 kmh 29.86 in1011.2 mb 0.00 in0.0 mm 0.00 in0.0 mm 0.00 in0.0 mm
03:10 PM 44.4°F6.9°C 39.9°F4.4°C 84% 5.8 mph SE9.3 kmh SE 5.9 mph9.5 kmh 29.87 in1011.5 mb 0.00 in0.0 mm 0.00 in0.0 mm 0.00 in0.0 mm
03:20 PM 44.4°F6.9°C 39.9°F4.4°C 84% 4.5 mph SW7.2 kmh SW 6.6 mph10.6 kmh 29.87 in1011.5 mb 0.00 in0.0 mm 0.00 in0.0 mm 0.00 in0.0 mm
03:30 PM 44.4°F6.9°C 40.2°F4.6°C 85% 5.4 mph SE8.7 kmh SE 9.1 mph14.6 kmh 29.87 in1011.5 mb 0.00 in0.0 mm 0.00 in0.0 mm 0.00 in0.0 mm
03:40 PM 44.2°F6.8°C 40.0°F4.4°C 85% 4.4 mph WSW7.1 kmh WSW 9.1 mph14.6 kmh 29.87 in1011.5 mb 0.00 in0.0 mm 0.00 in0.0 mm 0.00 in0.0 mm
03:50 PM 44.2°F6.8°C 40.0°F4.4°C 85% 3.0 mph S4.8 kmh S 5.9 mph9.5 kmh 29.87 in1011.5 mb 0.01 in0.3 mm 0.06 in1.5 mm 0.01 in0.3 mm
04:00 PM 44.2°F6.8°C 40.3°F4.6°C 86% 4.1 mph W6.6 kmh W 7.6 mph12.2 kmh 29.87 in1011.5 mb 0.01 in0.3 mm 0.00 in0.0 mm 0.01 in0.3 mm
04:10 PM 44.2°F6.8°C 40.3°F4.6°C 86% 4.4 mph NNW7.1 kmh NNW 5.9 mph9.5 kmh 29.86 in1011.2 mb 0.01 in0.3 mm 0.00 in0.0 mm 0.01 in0.3 mm
04:20 PM 44.2°F6.8°C 40.6°F4.8°C 87% 2.4 mph SSE3.9 kmh SSE 4.9 mph7.9 kmh 29.87 in1011.5 mb 0.01 in0.3 mm 0.00 in0.0 mm 0.01 in0.3 mm
04:30 PM 44.2°F6.8°C 40.6°F4.8°C 87% 2.9 mph WSW4.7 kmh WSW 4.2 mph6.8 kmh 29.87 in1011.5 mb 0.01 in0.3 mm 0.00 in0.0 mm 0.01 in0.3 mm
04:40 PM 44.2°F6.8°C 40.6°F4.8°C 87% 3.5 mph WNW5.6 kmh WNW 5.9 mph9.5 kmh 29.87 in1011.5 mb 0.01 in0.3 mm 0.00 in0.0 mm 0.01 in0.3 mm
04:50 PM 44.2°F6.8°C 40.9°F4.9°C 88% 2.5 mph N4.0 kmh N 4.2 mph6.8 kmh 29.87 in1011.5 mb 0.00 in0.0 mm 0.00 in0.0 mm 0.01 in0.3 mm
05:00 PM 44.2°F6.8°C 40.9°F4.9°C 88% 3.0 mph NNE4.8 kmh NNE 4.9 mph7.9 kmh 29.87 in1011.5 mb 0.00 in0.0 mm 0.00 in0.0 mm 0.01 in0.3 mm
05:10 PM 44.4°F6.9°C 41.1°F5.1°C 88% 4.1 mph E6.6 kmh E 4.2 mph6.8 kmh 29.87 in1011.5 mb 0.00 in0.0 mm 0.00 in0.0 mm 0.01 in0.3 mm
05:20 PM 44.4°F6.9°C 41.4°F5.2°C 89% 3.4 mph N5.5 kmh N 6.6 mph10.6 kmh 29.88 in1011.9 mb 0.00 in0.0 mm 0.00 in0.0 mm 0.01 in0.3 mm
05:30 PM 44.4°F6.9°C 41.4°F5.2°C 89% 2.6 mph N4.2 kmh N 4.9 mph7.9 kmh 29.88 in1011.9 mb 0.00 in0.0 mm 0.00 in0.0 mm 0.01 in0.3 mm
05:40 PM 44.4°F6.9°C 41.4°F5.2°C 89% 3.0 mph N4.8 kmh N 4.9 mph7.9 kmh 29.89 in1012.2 mb 0.00 in0.0 mm 0.00 in0.0 mm 0.01 in0.3 mm
05:50 PM 44.4°F6.9°C 41.4°F5.2°C 89% 2.5 mph N4.0 kmh N 4.2 mph6.8 kmh 29.89 in1012.2 mb 0.00 in0.0 mm 0.00 in0.0 mm 0.01 in0.3 mm
06:00 PM 44.4°F6.9°C 41.7°F5.4°C 90% 4.0 mph NNE6.4 kmh NNE 4.2 mph6.8 kmh 29.89 in1012.2 mb 0.00 in0.0 mm 0.00 in0.0 mm 0.01 in0.3 mm
06:10 PM 44.4°F6.9°C 41.7°F5.4°C 90% 4.5 mph NE7.2 kmh NE 6.6 mph10.6 kmh 29.90 in1012.5 mb 0.00 in0.0 mm 0.00 in0.0 mm 0.01 in0.3 mm
06:20 PM 44.4°F6.9°C 41.7°F5.4°C 90% 4.7 mph NNE7.6 kmh NNE 4.9 mph7.9 kmh 29.90 in1012.5 mb 0.00 in0.0 mm 0.00 in0.0 mm 0.01 in0.3 mm
06:30 PM 44.4°F6.9°C 41.7°F5.4°C 90% 5.0 mph NNE8.0 kmh NNE 5.9 mph9.5 kmh 29.90 in1012.5 mb 0.00 in0.0 mm 0.00 in0.0 mm 0.01 in0.3 mm
06:40 PM 44.4°F6.9°C 41.7°F5.4°C 90% 3.9 mph N6.3 kmh N 4.9 mph7.9 kmh 29.90 in1012.5 mb 0.00 in0.0 mm 0.00 in0.0 mm 0.01 in0.3 mm
06:50 PM 44.4°F6.9°C 41.7°F5.4°C 90% 3.7 mph NNE6.0 kmh NNE 5.9 mph9.5 kmh 29.91 in1012.9 mb 0.01 in0.3 mm 0.06 in1.5 mm 0.02 in0.5 mm
07:00 PM 44.4°F6.9°C 41.7°F5.4°C 90% 4.3 mph N6.9 kmh N 9.1 mph14.6 kmh 29.91 in1012.9 mb 0.01 in0.3 mm 0.00 in0.0 mm 0.02 in0.5 mm
07:10 PM 44.4°F6.9°C 41.7°F5.4°C 90% 3.9 mph NE6.3 kmh NE 4.2 mph6.8 kmh 29.91 in1012.9 mb 0.02 in0.5 mm 0.06 in1.5 mm 0.04 in1.0 mm
07:20 PM 44.4°F6.9°C 41.7°F5.4°C 90% 3.8 mph N6.1 kmh N 4.2 mph6.8 kmh 29.91 in1012.9 mb 0.02 in0.5 mm 0.00 in0.0 mm 0.04 in1.0 mm
07:30 PM 44.6°F7.0°C 40.4°F4.7°C 85% 3.6 mph NNE5.8 kmh NNE 5.9 mph9.5 kmh 29.92 in1013.2 mb 0.02 in0.5 mm 0.00 in0.0 mm 0.04 in1.0 mm
07:40 PM 44.6°F7.0°C 40.4°F4.7°C 85% 3.8 mph NE6.1 kmh NE 4.9 mph7.9 kmh 29.93 in1013.5 mb 0.02 in0.5 mm 0.00 in0.0 mm 0.04 in1.0 mm
07:50 PM 44.6°F7.0°C 40.4°F4.7°C 85% 5.3 mph NNE8.5 kmh NNE 6.6 mph10.6 kmh 29.93 in1013.5 mb 0.01 in0.3 mm 0.00 in0.0 mm 0.04 in1.0 mm
08:00 PM 44.4°F6.9°C 42.0°F5.6°C 91% 4.6 mph NE7.4 kmh NE 4.9 mph7.9 kmh 29.93 in1013.5 mb 0.01 in0.3 mm 0.00 in0.0 mm 0.04 in1.0 mm
08:10 PM 44.6°F7.0°C 40.7°F4.8°C 86% 4.5 mph NNE7.2 kmh NNE 5.9 mph9.5 kmh 29.94 in1013.9 mb 0.00 in0.0 mm 0.00 in0.0 mm 0.04 in1.0 mm
08:20 PM 44.6°F7.0°C 40.7°F4.8°C 86% 5.3 mph NNE8.5 kmh NNE 7.6 mph12.2 kmh 29.94 in1013.9 mb 0.00 in0.0 mm 0.00 in0.0 mm 0.04 in1.0 mm
08:30 PM 44.6°F7.0°C 40.7°F4.8°C 86% 5.2 mph NE8.4 kmh NE 6.6 mph10.6 kmh 29.94 in1013.9 mb 0.00 in0.0 mm 0.00 in0.0 mm 0.04 in1.0 mm
08:40 PM 44.6°F7.0°C 40.7°F4.8°C 86% 3.9 mph NNE6.3 kmh NNE 4.2 mph6.8 kmh 29.95 in1014.2 mb 0.00 in0.0 mm 0.00 in0.0 mm 0.04 in1.0 mm
08:50 PM 44.6°F7.0°C 40.7°F4.8°C 86% 5.1 mph NE8.2 kmh NE 7.6 mph12.2 kmh 29.95 in1014.2 mb 0.00 in0.0 mm 0.00 in0.0 mm 0.04 in1.0 mm
09:00 PM 44.6°F7.0°C 40.7°F4.8°C 86% 5.3 mph NE8.5 kmh NE 6.6 mph10.6 kmh 29.96 in1014.6 mb 0.00 in0.0 mm 0.00 in0.0 mm 0.04 in1.0 mm
09:10 PM 44.6°F7.0°C 41.0°F5.0°C 87% 3.9 mph N6.3 kmh N 4.9 mph7.9 kmh 29.97 in1014.9 mb 0.00 in0.0 mm 0.00 in0.0 mm 0.04 in1.0 mm
09:20 PM 44.6°F7.0°C 41.0°F5.0°C 87% 5.3 mph N8.5 kmh N 4.9 mph7.9 kmh 29.97 in1014.9 mb 0.00 in0.0 mm 0.00 in0.0 mm 0.04 in1.0 mm
09:30 PM 44.6°F7.0°C 41.0°F5.0°C 87% 5.4 mph NNE8.7 kmh NNE 6.6 mph10.6 kmh 29.98 in1015.2 mb 0.00 in0.0 mm 0.00 in0.0 mm 0.04 in1.0 mm
09:40 PM 44.8°F7.1°C 41.1°F5.1°C 87% 5.7 mph NE9.2 kmh NE 7.6 mph12.2 kmh 29.99 in1015.6 mb 0.00 in0.0 mm 0.00 in0.0 mm 0.04 in1.0 mm
09:50 PM 44.6°F7.0°C 41.0°F5.0°C 87% 4.6 mph NE7.4 kmh NE 5.9 mph9.5 kmh 29.99 in1015.6 mb 0.00 in0.0 mm 0.00 in0.0 mm 0.04 in1.0 mm
10:00 PM 44.6°F7.0°C 41.0°F5.0°C 87% 5.2 mph NE8.4 kmh NE 4.9 mph7.9 kmh 30.00 in1015.9 mb 0.00 in0.0 mm 0.00 in0.0 mm 0.04 in1.0 mm
10:10 PM 44.6°F7.0°C 41.0°F5.0°C 87% 5.3 mph N8.5 kmh N 5.9 mph9.5 kmh 30.01 in1016.3 mb 0.00 in0.0 mm 0.00 in0.0 mm 0.04 in1.0 mm
10:20 PM 44.4°F6.9°C 42.0°F5.6°C 91% 5.1 mph NE8.2 kmh NE 6.6 mph10.6 kmh 30.01 in1016.3 mb 0.00 in0.0 mm 0.00 in0.0 mm 0.04 in1.0 mm
10:30 PM 44.4°F6.9°C 42.0°F5.6°C 91% 4.5 mph NNE7.2 kmh NNE 9.1 mph14.6 kmh 30.02 in1016.6 mb 0.00 in0.0 mm 0.00 in0.0 mm 0.04 in1.0 mm
10:40 PM 44.2°F6.8°C 41.8°F5.4°C 91% 5.1 mph NNE8.2 kmh NNE 6.6 mph10.6 kmh 30.03 in1016.9 mb 0.00 in0.0 mm 0.00 in0.0 mm 0.04 in1.0 mm
10:50 PM 44.2°F6.8°C 41.8°F5.4°C 91% 5.6 mph NNE9.0 kmh NNE 6.6 mph10.6 kmh 30.03 in1016.9 mb 0.00 in0.0 mm 0.00 in0.0 mm 0.04 in1.0 mm
11:00 PM 44.2°F6.8°C 41.8°F5.4°C 91% 5.2 mph N8.4 kmh N 5.9 mph9.5 kmh 30.04 in1017.3 mb 0.00 in0.0 mm 0.00 in0.0 mm 0.04 in1.0 mm
11:10 PM 44.2°F6.8°C 41.8°F5.4°C 91% 5.1 mph NNW8.2 kmh NNW 4.9 mph7.9 kmh 30.04 in1017.3 mb 0.00 in0.0 mm 0.00 in0.0 mm 0.04 in1.0 mm
11:20 PM 44.2°F6.8°C 41.8°F5.4°C 91% 4.3 mph NE6.9 kmh NE 4.2 mph6.8 kmh 30.05 in1017.6 mb 0.00 in0.0 mm 0.00 in0.0 mm 0.04 in1.0 mm
11:30 PM 44.1°F6.7°C 41.6°F5.3°C 91% 4.5 mph NE7.2 kmh NE 5.9 mph9.5 kmh 30.05 in1017.6 mb 0.00 in0.0 mm 0.00 in0.0 mm 0.04 in1.0 mm
11:40 PM 44.2°F6.8°C 41.8°F5.4°C 91% 4.3 mph NNE6.9 kmh NNE 5.9 mph9.5 kmh 30.06 in1017.9 mb 0.00 in0.0 mm 0.00 in0.0 mm 0.04 in1.0 mm
11:50 PM 44.2°F6.8°C 41.8°F5.4°C 91% 3.6 mph NNE5.8 kmh NNE 4.9 mph7.9 kmh 30.06 in1017.9 mb 0.00 in0.0 mm 0.00 in0.0 mm 0.04 in1.0 mm